Time;durP1;ratioP1;P1;durP2;ratioP2;P2;SDS_P1;SDS_P2;PMS_P1;PMS_P2;Temp;Humidity;BMP_temperature;BMP_pressure;BME280_temperature;BME280_humidity;BME280_pressure;Samples;Min_cycle;Max_cycle;Signal;HPM_P1;HPM_P2
2023/08/21 00:06:56;;;;;;;6.90;5.60;;;;;;;22.29;100.00;98257.00;18231854;32;20495;-53
2023/08/21 00:16:59;;;;;;;;;;;;;;;22.27;100.00;98253.78;18232619;32;20132;-54
2023/08/21 00:27:03;;;;;;;6.80;6.10;;;;;;;22.15;100.00;98245.44;18232002;32;19946;-55
2023/08/21 00:37:06;;;;;;;7.53;6.10;;;;;;;22.07;100.00;98238.81;18231251;32;20058;-55
2023/08/21 00:47:09;;;;;;;10.85;6.60;;;;;;;22.02;100.00;98238.22;18236502;32;20069;-55
2023/08/21 00:57:12;;;;;;;8.00;6.00;;;;;;;21.97;100.00;98233.72;18240207;32;20400;-55
2023/08/21 01:07:16;;;;;;;6.30;5.68;;;;;;;21.93;100.00;98238.25;18239861;32;20047;-55
2023/08/21 01:17:22;;;;;;;6.82;6.03;;;;;;;21.91;100.00;98237.78;18239395;32;20085;-55
2023/08/21 01:27:25;;;;;;;7.03;5.95;;;;;;;21.86;100.00;98247.03;18238715;32;20058;-55
2023/08/21 01:37:30;;;;;;;6.68;5.53;;;;;;;21.82;100.00;98254.34;18239640;32;20062;-55
2023/08/21 01:47:33;;;;;;;8.93;6.15;;;;;;;21.74;100.00;98252.44;18238182;32;20442;-55
2023/08/21 01:57:35;;;;;;;9.25;6.05;;;;;;;21.66;100.00;98246.59;18238267;32;20059;-55
2023/08/21 02:07:38;;;;;;;8.87;5.73;;;;;;;21.58;100.00;98241.94;18238678;32;20055;-55
2023/08/21 02:17:42;;;;;;;7.40;6.20;;;;;;;21.49;100.00;98249.41;18236583;32;20424;-54
2023/08/21 02:27:45;;;;;;;6.82;6.05;;;;;;;21.35;100.00;98243.28;18237437;32;20054;-55
2023/08/21 02:37:47;;;;;;;9.32;5.68;;;;;;;21.25;100.00;98242.47;18236958;32;20098;-54
2023/08/21 02:47:51;;;;;;;12.43;6.43;;;;;;;21.13;100.00;98240.41;18236532;32;20105;-55
2023/08/21 02:57:53;;;;;;;10.25;6.43;;;;;;;21.04;100.00;98244.31;18236078;32;20139;-54
2023/08/21 03:07:56;;;;;;;11.00;5.50;;;;;;;20.96;100.00;98240.44;18235171;32;20157;-55
2023/08/21 03:17:59;;;;;;;6.85;5.75;;;;;;;20.86;100.00;98244.31;18233991;32;20562;-55
2023/08/21 03:28:03;;;;;;;7.90;6.40;;;;;;;20.78;100.00;98253.38;18234462;32;20043;-55
2023/08/21 03:38:08;;;;;;;9.15;6.30;;;;;;;20.67;100.00;98254.81;18234283;32;20064;-54
2023/08/21 03:48:14;;;;;;;6.50;5.90;;;;;;;20.56;100.00;98260.59;18234041;32;20081;-55
2023/08/21 03:58:19;;;;;;;7.80;5.87;;;;;;;20.49;100.00;98268.53;18233293;32;20066;-55
2023/08/21 04:08:23;;;;;;;6.60;5.82;;;;;;;20.40;100.00;98273.97;18219075;32;20097;-55
2023/08/21 04:18:26;;;;;;;;;;;;;;;20.34;100.00;98274.44;18232483;32;20051;-53
2023/08/21 04:28:44;;;;;;;6.87;6.18;;;;;;;20.24;100.00;98286.53;18231154;32;19964;-55
2023/08/21 04:38:47;;;;;;;6.72;5.95;;;;;;;20.21;100.00;98292.69;18231531;32;20034;-55
2023/08/21 04:48:52;;;;;;;9.93;5.43;;;;;;;20.14;100.00;98288.47;18231119;32;20071;-54
2023/08/21 04:58:59;;;;;;;8.27;5.95;;;;;;;20.10;100.00;98300.41;18229489;32;20055;-55
2023/08/21 05:09:03;;;;;;;9.63;6.60;;;;;;;20.10;100.00;98297.66;18229159;32;20051;-55
2023/08/21 05:19:07;;;;;;;8.57;5.57;;;;;;;20.12;100.00;98317.37;18228679;32;20051;-55
2023/08/21 05:29:11;;;;;;;11.38;6.37;;;;;;;20.16;100.00;98318.34;18229246;32;20091;-55
2023/08/21 05:39:19;;;;;;;8.43;5.85;;;;;;;20.21;100.00;98323.69;18239939;32;20347;-54
2023/08/21 05:49:24;;;;;;;7.75;6.12;;;;;;;20.38;100.00;98319.38;18239251;32;20091;-55
2023/08/21 05:59:33;;;;;;;7.70;6.15;;;;;;;20.62;100.00;98330.78;18238441;32;20054;-54
2023/08/21 06:09:36;;;;;;;6.50;5.93;;;;;;;20.87;100.00;98347.66;18238370;32;20046;-54
2023/08/21 06:19:43;;;;;;;5.97;5.37;;;;;;;21.15;100.00;98350.09;18236043;32;20430;-55
2023/08/21 06:29:52;;;;;;;5.60;5.10;;;;;;;21.41;100.00;98352.81;18237232;32;20071;-54
2023/08/21 06:39:58;;;;;;;6.10;5.35;;;;;;;21.67;100.00;98358.31;18236263;32;20460;-55
2023/08/21 06:50:05;;;;;;;5.47;4.93;;;;;;;21.96;100.00;98367.81;18236162;32;20343;-55
2023/08/21 07:00:09;;;;;;;5.43;4.37;;;;;;;22.41;100.00;98376.75;18236001;32;20441;-55
2023/08/21 07:10:14;;;;;;;4.50;4.10;;;;;;;22.85;100.00;98382.84;18235793;32;20091;-55
2023/08/21 07:20:18;;;;;;;4.68;4.28;;;;;;;23.24;100.00;98389.09;18235418;32;20069;-54
2023/08/21 07:30:23;;;;;;;5.65;4.93;;;;;;;23.62;100.00;98376.25;18234641;32;20394;-55
2023/08/21 07:40:29;;;;;;;10.35;7.28;;;;;;;24.01;100.00;98377.66;18233531;32;20065;-56
2023/08/21 07:50:33;;;;;;;8.57;7.78;;;;;;;24.40;100.00;98377.37;18233659;32;20514;-56
2023/08/21 08:00:37;;;;;;;9.98;7.60;;;;;;;24.73;100.00;98379.25;18233043;32;20103;-56
2023/08/21 08:10:41;;;;;;;9.65;8.30;;;;;;;25.12;100.00;98378.81;18232854;32;20110;-56
2023/08/21 08:20:44;;;;;;;8.00;7.20;;;;;;;25.48;100.00;98377.94;18232656;32;20425;-56
2023/08/21 08:30:47;;;;;;;8.60;7.68;;;;;;;25.89;100.00;98380.66;18231636;32;20323;-55
2023/08/21 08:40:53;;;;;;;9.10;8.20;;;;;;;26.30;100.00;98392.44;18231324;32;20105;-56
2023/08/21 08:50:56;;;;;;;9.75;8.70;;;;;;;26.63;100.00;98388.47;18230029;32;20091;-56
2023/08/21 09:01:00;;;;;;;9.48;8.55;;;;;;;26.93;100.00;98385.25;18229567;32;20123;-57
2023/08/21 09:11:05;;;;;;;12.82;9.80;;;;;;;27.25;100.00;98382.34;18237353;32;20114;-57
2023/08/21 09:21:08;;;;;;;12.32;9.27;;;;;;;27.51;100.00;98373.41;18240473;32;20084;-57
2023/08/21 09:31:12;;;;;;;11.43;9.10;;;;;;;27.82;100.00;98368.03;18239490;32;20057;-57
2023/08/21 09:41:22;;;;;;;10.43;9.05;;;;;;;28.18;100.00;98357.59;18239200;32;20050;-56
2023/08/21 09:51:27;;;;;;;10.63;9.18;;;;;;;28.46;100.00;98362.81;18239119;32;20113;-56
2023/08/21 10:01:34;;;;;;;11.05;9.77;;;;;;;28.80;100.00;98348.25;18238641;32;20106;-56
2023/08/21 10:11:40;;;;;;;11.82;9.38;;;;;;;29.09;100.00;98349.44;18238679;32;20039;-56
2023/08/21 10:21:50;;;;;;;11.35;10.15;;;;;;;29.38;100.00;98347.87;18237289;32;20050;-56
2023/08/21 10:32:02;;;;;;;10.98;9.68;;;;;;;29.73;100.00;98335.50;18236989;32;20051;-56
2023/08/21 10:42:15;;;;;;;14.02;10.13;;;;;;;29.98;99.92;98328.59;18235887;32;20050;-56
2023/08/21 10:52:23;;;;;;;9.82;8.82;;;;;;;30.38;97.86;98327.75;18236261;32;20104;-57
2023/08/21 11:02:30;;;;;;;12.30;10.30;;;;;;;30.76;92.83;98322.84;18236204;32;20098;-57
2023/08/21 11:12:35;;;;;;;9.75;8.85;;;;;;;30.95;93.22;98309.00;18235578;32;20460;-56
2023/08/21 11:22:41;;;;;;;11.23;8.95;;;;;;;31.18;86.48;98311.53;18234975;32;20058;-56
2023/08/21 11:32:45;;;;;;;9.52;8.68;;;;;;;31.62;84.29;98299.31;18234020;32;20358;-57
2023/08/21 11:42:52;;;;;;;9.05;8.15;;;;;;;31.91;83.04;98307.75;18234656;32;20105;-57
2023/08/21 11:52:57;;;;;;;9.05;7.50;;;;;;;32.23;79.99;98285.41;18233841;32;20103;-57
2023/08/21 12:03:54;;;;;;;9.63;7.37;;;;;;;32.66;70.71;98284.53;18233287;32;20113;-56
2023/08/21 12:14:07;;;;;;;10.48;7.62;;;;;;;32.79;62.17;98284.91;18232854;32;20377;-57
2023/08/21 12:24:11;;;;;;;12.88;7.12;;;;;;;33.14;63.40;98273.97;18232579;32;20103;-57
2023/08/21 12:34:16;;;;;;;7.68;6.30;;;;;;;33.46;60.14;98256.22;18230357;32;20079;-56
2023/08/21 12:44:20;;;;;;;10.48;6.65;;;;;;;33.80;52.25;98253.59;18239382;32;20063;-57
2023/08/21 12:54:23;;;;;;;8.30;6.70;;;;;;;34.11;57.27;98251.75;18241724;32;20111;-57
2023/08/21 13:04:29;;;;;;;9.35;6.97;;;;;;;34.34;54.65;98238.31;18241415;32;20080;-56
2023/08/21 13:14:39;;;;;;;7.35;6.53;;;;;;;34.87;54.74;98228.53;18240495;32;20050;-57
2023/08/21 13:24:44;;;;;;;9.02;6.57;;;;;;;35.43;50.78;98231.00;18240072;32;20107;-57
2023/08/21 13:34:49;;;;;;;9.23;5.85;;;;;;;36.12;51.43;98225.06;18238421;32;20106;-56
2023/08/21 13:44:53;;;;;;;9.18;6.80;;;;;;;36.80;46.51;98216.63;18239485;32;20062;-56
2023/08/21 13:55:00;;;;;;;7.87;6.32;;;;;;;37.11;46.13;98208.69;18238435;32;20054;-56
2023/08/21 14:16:16;;;;;;;7.07;5.90;;;;;;;37.73;45.08;98196.81;18238036;32;20059;-56
2023/08/21 14:26:20;;;;;;;5.75;4.87;;;;;;;38.03;41.09;98192.03;18237237;32;20055;-54
2023/08/21 14:36:24;;;;;;;8.63;5.45;;;;;;;38.09;40.28;98189.47;18237368;32;20133;-55
2023/08/21 14:46:29;;;;;;;5.68;5.10;;;;;;;38.22;39.59;98179.00;18237071;32;20109;-54
2023/08/21 15:07:55;;;;;;;;;;;;;;;36.54;39.48;98156.37;18235395;32;20063;-53
2023/08/21 15:18:02;;;;;;;5.00;4.50;;;;;;;35.73;37.59;98164.63;18236032;32;19946;-53
2023/08/21 15:28:08;;;;;;;6.75;4.28;;;;;;;34.95;42.24;98142.13;18235075;32;20069;-56
2023/08/21 15:38:12;;;;;;;5.50;4.55;;;;;;;34.43;45.07;98126.34;18234961;32;20053;-56
2023/08/21 15:48:17;;;;;;;5.05;4.10;;;;;;;33.95;46.39;98111.22;18234390;32;20106;-54
2023/08/21 15:58:21;;;;;;;4.72;3.87;;;;;;;33.58;48.28;98107.16;18233571;32;20070;-57
2023/08/21 16:08:28;;;;;;;5.03;3.30;;;;;;;33.49;50.16;98104.03;18233431;32;20054;-51
2023/08/21 16:18:37;;;;;;;4.15;3.53;;;;;;;33.37;44.72;98092.12;18232482;32;20102;-49
2023/08/21 16:28:58;;;;;;;4.55;3.28;;;;;;;32.87;47.43;98086.84;18220840;32;20050;-51
2023/08/21 16:39:03;;;;;;;4.40;3.47;;;;;;;32.27;52.84;98081.13;18231546;32;20062;-51
2023/08/21 16:49:07;;;;;;;4.28;3.87;;;;;;;31.96;55.72;98072.41;18230339;32;20070;-48
2023/08/21 16:59:11;;;;;;;4.20;3.60;;;;;;;32.10;57.39;98080.75;18230954;32;20095;-48
2023/08/21 17:09:15;;;;;;;5.32;3.55;;;;;;;31.75;59.31;98067.66;18229496;32;20095;-49
2023/08/21 17:19:18;;;;;;;4.87;4.15;;;;;;;31.13;69.60;98069.69;18230078;32;20054;-49
2023/08/21 17:29:22;;;;;;;6.47;5.18;;;;;;;30.76;70.17;98063.22;18233767;32;20066;-48
2023/08/21 17:39:27;;;;;;;5.47;4.85;;;;;;;30.72;66.28;98062.41;18239736;32;20435;-50
2023/08/21 17:49:30;;;;;;;5.22;4.72;;;;;;;30.53;65.77;98076.72;18239355;32;20102;-48
2023/08/21 17:59:35;;;;;;;7.07;4.62;;;;;;;30.46;68.03;98073.94;18238943;32;20096;-51
2023/08/21 18:09:38;;;;;;;6.32;5.25;;;;;;;30.04;76.15;98065.75;18237491;32;20059;-48
2023/08/21 18:19:42;;;;;;;6.60;4.30;;;;;;;29.76;77.87;98069.16;18237875;32;20138;-49
2023/08/21 18:29:53;;;;;;;7.22;5.00;;;;;;;29.36;87.89;98068.09;18237493;32;20389;-50
2023/08/21 18:39:56;;;;;;;7.28;4.40;;;;;;;28.81;97.12;98072.34;18236912;32;20043;-48
2023/08/21 18:49:59;;;;;;;5.75;4.50;;;;;;;28.33;100.00;98081.34;18235784;32;20073;-48
2023/08/21 19:00:11;;;;;;;7.28;5.12;;;;;;;27.86;100.00;98091.81;18236153;32;20109;-50
2023/08/21 19:10:15;;;;;;;6.20;4.72;;;;;;;27.48;100.00;98107.50;18236027;32;20077;-48
2023/08/21 19:20:19;;;;;;;6.30;4.82;;;;;;;27.12;100.00;98108.84;18235328;32;20057;-48
2023/08/21 19:30:22;;;;;;;7.65;5.28;;;;;;;26.81;100.00;98116.25;18233494;32;20523;-50
2023/08/21 19:40:25;;;;;;;8.65;5.00;;;;;;;26.56;100.00;98127.63;18234360;32;20047;-50
2023/08/21 19:50:29;;;;;;;6.43;5.10;;;;;;;26.27;100.00;98135.34;18233703;32;20077;-49
2023/08/21 20:00:32;;;;;;;5.55;4.85;;;;;;;26.04;100.00;98130.50;18232646;32;20097;-48
2023/08/21 20:10:38;;;;;;;6.50;4.85;;;;;;;25.93;100.00;98134.97;18233332;32;20066;-51
2023/08/21 20:20:48;;;;;;;6.37;4.90;;;;;;;25.71;100.00;98139.22;18218495;32;20054;-48
2023/08/21 20:31:00;;;;;;;8.32;5.05;;;;;;;25.49;100.00;98146.16;18230566;32;20058;-48
2023/08/21 20:41:05;;;;;;;6.35;5.37;;;;;;;25.26;100.00;98155.09;18231858;32;20076;-49
2023/08/21 20:51:08;;;;;;;9.05;5.18;;;;;;;25.06;100.00;98154.16;18230323;32;20046;-50
2023/08/21 21:01:12;;;;;;;7.45;4.50;;;;;;;24.87;100.00;98157.59;18231952;32;20438;-50
2023/08/21 21:11:15;;;;;;;5.50;4.97;;;;;;;24.68;100.00;98159.06;18241433;32;20058;-49
2023/08/21 21:21:18;;;;;;;6.35;4.97;;;;;;;24.49;100.00;98153.38;18240687;32;20382;-49
2023/08/21 21:31:21;;;;;;;6.80;4.90;;;;;;;24.32;100.00;98151.69;18240043;32;20430;-49
2023/08/21 21:41:24;;;;;;;6.60;4.70;;;;;;;24.16;100.00;98157.09;18238725;32;20054;-47
2023/08/21 21:51:27;;;;;;;7.43;5.15;;;;;;;24.01;100.00;98158.66;18238179;32;20051;-48
2023/08/21 22:01:30;;;;;;;6.85;4.70;;;;;;;23.88;100.00;98157.84;18239005;32;20103;-49
2023/08/21 22:11:33;;;;;;;5.62;5.00;;;;;;;23.73;100.00;98150.25;18238112;32;20096;-47
2023/08/21 22:21:36;;;;;;;6.55;4.93;;;;;;;23.59;100.00;98147.84;18237966;32;20059;-47
2023/08/21 22:31:39;;;;;;;8.77;5.07;;;;;;;23.47;100.00;98152.16;18237324;32;20085;-48
2023/08/21 22:41:44;;;;;;;4.97;4.47;;;;;;;23.35;100.00;98149.41;18235368;32;20043;-48
2023/08/21 22:51:48;;;;;;;6.35;4.50;;;;;;;23.26;100.00;98155.03;18237302;32;20105;-50
2023/08/21 23:01:51;;;;;;;6.93;4.47;;;;;;;23.13;100.00;98134.09;18236580;32;20034;-51
2023/08/21 23:11:54;;;;;;;4.97;4.12;;;;;;;23.02;100.00;98139.19;18235795;32;20103;-48
2023/08/21 23:21:57;;;;;;;8.13;4.32;;;;;;;22.92;100.00;98151.47;18233875;32;20058;-48
2023/08/21 23:32:00;;;;;;;4.30;3.70;;;;;;;22.82;100.00;98135.38;18234714;32;20061;-47
2023/08/21 23:42:03;;;;;;;4.82;4.10;;;;;;;22.74;100.00;98136.25;18221166;32;20050;-50
2023/08/21 23:52:06;;;;;;;4.78;3.80;;;;;;;22.64;100.00;98132.78;18233146;32;20351;-48
